Time;durP1;ratioP1;P1;durP2;ratioP2;P2;SDS_P1;SDS_P2;PMS_P1;PMS_P2;Temp;Humidity;BMP_temperature;BMP_pressure;BME280_temperature;BME280_humidity;BME280_pressure;Samples;Min_cycle;Max_cycle;Signal;HPM_P1;HPM_P2
2023/07/01 00:01:35;;;;;;;10.25;7.75;;;;;;;;;;10550878;27;20016;-73
2023/07/01 00:06:36;;;;;;;8.07;6.28;;;;;;;;;;10606898;27;20022;-73
2023/07/01 00:11:37;;;;;;;10.93;7.10;;;;;;;;;;10618713;27;20145;-74
2023/07/01 00:16:39;;;;;;;11.23;6.90;;;;;;;;;;10588670;28;20093;-74
2023/07/01 00:21:40;;;;;;;10.25;7.55;;;;;;;;;;10621296;27;20291;-74
2023/07/01 00:26:40;;;;;;;10.50;7.43;;;;;;;;;;10629812;27;20023;-74
2023/07/01 00:31:40;;;;;;;9.98;7.20;;;;;;;;;;10629320;27;20035;-74
2023/07/01 00:36:40;;;;;;;12.25;7.22;;;;;;;;;;10629938;27;20023;-74
2023/07/01 00:41:41;;;;;;;12.43;8.50;;;;;;;;;;10630065;27;20364;-73
2023/07/01 00:46:41;;;;;;;11.35;8.27;;;;;;;;;;10610759;27;20031;-73
2023/07/01 00:51:41;;;;;;;10.68;7.78;;;;;;;;;;10629845;27;20205;-73
2023/07/01 00:56:42;;;;;;;10.75;7.90;;;;;;;;;;10609392;27;20371;-73
2023/07/01 01:01:46;;;;;;;9.55;7.40;;;;;;;;;;10627973;27;20022;-74
2023/07/01 01:06:54;;;;;;;15.88;8.13;;;;;;;;;;10628431;27;20019;-73
2023/07/01 01:11:56;;;;;;;11.57;8.18;;;;;;;;;;10627968;27;20235;-73
2023/07/01 01:16:56;;;;;;;11.63;7.50;;;;;;;;;;10543843;28;20321;-73
2023/07/01 01:22:08;;;;;;;9.88;6.72;;;;;;;;;;10612746;27;20050;-74
2023/07/01 01:27:10;;;;;;;11.73;7.85;;;;;;;;;;10628045;27;20327;-74
2023/07/01 01:32:10;;;;;;;14.27;7.53;;;;;;;;;;10627249;27;20341;-73
2023/07/01 01:37:12;;;;;;;11.75;7.65;;;;;;;;;;10609385;27;20399;-72
2023/07/01 01:42:24;;;;;;;12.07;8.02;;;;;;;;;;10628079;27;20321;-72
2023/07/01 01:47:28;;;;;;;9.82;7.88;;;;;;;;;;10544994;27;20302;-73
2023/07/01 01:52:29;;;;;;;12.00;6.78;;;;;;;;;;10542613;28;20141;-73
2023/07/01 01:57:30;;;;;;;11.13;7.60;;;;;;;;;;10541898;28;20268;-74
2023/07/01 02:02:30;;;;;;;10.80;6.82;;;;;;;;;;10564999;27;20065;-74
2023/07/01 02:07:31;;;;;;;11.85;7.85;;;;;;;;;;10625709;27;20031;-74
2023/07/01 02:12:31;;;;;;;9.43;7.05;;;;;;;;;;10625877;27;20119;-73
2023/07/01 02:17:31;;;;;;;13.75;7.15;;;;;;;;;;10607629;27;20157;-74
2023/07/01 02:22:32;;;;;;;12.57;7.47;;;;;;;;;;10625308;27;20023;-74
2023/07/01 02:27:32;;;;;;;10.07;7.43;;;;;;;;;;10625284;27;20209;-74
2023/07/01 02:32:33;;;;;;;13.50;7.72;;;;;;;;;;10624499;27;20333;-74
2023/07/01 02:37:33;;;;;;;13.77;7.18;;;;;;;;;;10607720;27;20317;-74
2023/07/01 02:42:33;;;;;;;10.93;7.67;;;;;;;;;;10603745;27;20019;-74
2023/07/01 02:47:33;;;;;;;12.13;8.13;;;;;;;;;;10624633;27;20038;-73
2023/07/01 02:52:34;;;;;;;11.65;8.35;;;;;;;;;;10624090;27;20031;-73
2023/07/01 02:57:34;;;;;;;15.50;7.75;;;;;;;;;;10622986;27;20093;-74
2023/07/01 03:02:35;;;;;;;13.18;7.95;;;;;;;;;;10623826;27;20115;-74
2023/07/01 03:07:35;;;;;;;13.02;8.07;;;;;;;;;;10598024;27;20020;-72
2023/07/01 03:12:36;;;;;;;14.60;8.07;;;;;;;;;;10539904;28;20026;-73
2023/07/01 03:17:36;;;;;;;9.55;6.97;;;;;;;;;;10604210;27;20019;-73
2023/07/01 03:22:36;;;;;;;13.30;7.70;;;;;;;;;;10623439;27;20015;-74
2023/07/01 03:27:37;;;;;;;14.55;8.65;;;;;;;;;;10604886;28;20218;-73
2023/07/01 03:32:37;;;;;;;12.23;8.33;;;;;;;;;;10623497;28;20088;-73
2023/07/01 03:37:37;;;;;;;13.18;8.48;;;;;;;;;;10623278;28;20446;-73
2023/07/01 03:42:38;;;;;;;11.77;8.18;;;;;;;;;;10623594;28;20034;-74
2023/07/01 03:47:43;;;;;;;12.88;8.93;;;;;;;;;;10623318;28;20019;-72
2023/07/01 03:52:43;;;;;;;16.15;9.05;;;;;;;;;;10622743;28;20023;-74
2023/07/01 03:57:43;;;;;;;16.40;10.55;;;;;;;;;;10622350;28;20011;-72
2023/07/01 04:02:47;;;;;;;12.85;8.20;;;;;;;;;;10622899;28;20022;-73
2023/07/01 04:07:48;;;;;;;9.77;8.07;;;;;;;;;;10623045;28;20019;-74
2023/07/01 04:12:48;;;;;;;9.90;7.55;;;;;;;;;;10604374;28;20304;-74
2023/07/01 04:17:48;;;;;;;15.02;7.47;;;;;;;;;;10582451;28;20086;-73
2023/07/01 04:22:49;;;;;;;12.52;7.78;;;;;;;;;;10597267;28;20354;-73
2023/07/01 04:27:49;;;;;;;11.63;7.63;;;;;;;;;;10621583;28;20022;-74
2023/07/01 04:32:49;;;;;;;14.27;7.53;;;;;;;;;;10629512;27;20050;-74
2023/07/01 04:37:49;;;;;;;12.43;7.70;;;;;;;;;;10630345;27;20022;-73
2023/07/01 04:42:50;;;;;;;10.20;7.10;;;;;;;;;;10593833;27;20034;-74
2023/07/01 04:47:50;;;;;;;16.63;7.65;;;;;;;;;;10545018;28;20020;-73
2023/07/01 04:52:50;;;;;;;12.38;6.97;;;;;;;;;;10585403;27;20030;-73
2023/07/01 04:57:51;;;;;;;11.07;6.45;;;;;;;;;;10611248;27;20015;-74
2023/07/01 05:02:51;;;;;;;10.05;6.03;;;;;;;;;;10571358;27;20020;-74
2023/07/01 05:07:52;;;;;;;10.25;5.60;;;;;;;;;;10580817;27;20023;-74
2023/07/01 05:12:52;;;;;;;11.13;4.95;;;;;;;;;;10628589;27;20023;-72
2023/07/01 05:17:52;;;;;;;7.75;5.28;;;;;;;;;;10553477;27;20019;-72
2023/07/01 05:22:52;;;;;;;9.90;5.10;;;;;;;;;;10543365;28;20020;-72
2023/07/01 05:27:53;;;;;;;9.73;5.65;;;;;;;;;;10543220;28;20020;-73
2023/07/01 05:32:53;;;;;;;6.60;4.93;;;;;;;;;;10586466;27;20401;-72
2023/07/01 05:37:54;;;;;;;5.70;4.43;;;;;;;;;;10589714;27;20024;-72
2023/07/01 05:42:54;;;;;;;5.10;4.10;;;;;;;;;;10542188;28;20048;-73
2023/07/01 05:47:54;;;;;;;12.55;5.22;;;;;;;;;;10609964;27;20255;-73
2023/07/01 05:52:55;;;;;;;8.70;4.30;;;;;;;;;;10626143;27;20027;-73
2023/07/01 05:57:55;;;;;;;5.55;4.13;;;;;;;;;;10627084;27;20027;-73
2023/07/01 06:02:55;;;;;;;5.20;3.83;;;;;;;;;;10526801;28;20027;-73
2023/07/01 06:07:56;;;;;;;9.02;4.35;;;;;;;;;;10614320;27;20015;-73
2023/07/01 06:12:56;;;;;;;4.95;3.45;;;;;;;;;;10626148;27;20263;-74
2023/07/01 06:17:56;;;;;;;6.97;4.00;;;;;;;;;;10626014;27;20019;-73
2023/07/01 06:22:56;;;;;;;6.22;3.95;;;;;;;;;;10568815;27;20306;-73
2023/07/01 06:27:57;;;;;;;5.00;3.85;;;;;;;;;;10540766;28;20086;-73
2023/07/01 06:32:57;;;;;;;6.03;3.63;;;;;;;;;;10555840;27;20321;-73
2023/07/01 06:37:57;;;;;;;9.13;3.95;;;;;;;;;;10625512;27;20054;-73
2023/07/01 06:42:57;;;;;;;5.00;3.47;;;;;;;;;;10570416;27;20023;-73
2023/07/01 06:47:58;;;;;;;6.03;4.13;;;;;;;;;;10579156;27;20221;-72
2023/07/01 06:52:58;;;;;;;5.40;3.43;;;;;;;;;;10623799;27;20058;-73
2023/07/01 06:58:02;;;;;;;7.00;3.90;;;;;;;;;;10583757;27;20019;-72
2023/07/01 07:03:03;;;;;;;7.15;3.90;;;;;;;;;;10590972;27;20361;-74
2023/07/01 07:08:03;;;;;;;5.47;3.92;;;;;;;;;;10623087;27;20038;-72
2023/07/01 07:13:04;;;;;;;7.27;4.00;;;;;;;;;;10613899;27;20205;-73
2023/07/01 07:18:07;;;;;;;6.07;4.00;;;;;;;;;;10539722;28;20028;-73
2023/07/01 07:23:08;;;;;;;8.82;4.43;;;;;;;;;;10569585;28;20373;-72
2023/07/01 07:28:08;;;;;;;6.55;3.47;;;;;;;;;;10572415;28;20024;-72
2023/07/01 07:33:08;;;;;;;5.80;3.93;;;;;;;;;;10561113;28;20044;-74
2023/07/01 07:38:09;;;;;;;4.88;3.30;;;;;;;;;;10575583;28;20032;-70
2023/07/01 07:43:10;;;;;;;3.88;3.38;;;;;;;;;;10576952;28;20023;-70
2023/07/01 07:48:10;;;;;;;7.32;3.67;;;;;;;;;;10579022;28;20382;-70
2023/07/01 07:53:12;;;;;;;7.57;4.00;;;;;;;;;;10576756;28;20015;-70
2023/07/01 07:58:13;;;;;;;5.65;3.45;;;;;;;;;;10558379;28;20011;-70
2023/07/01 08:03:13;;;;;;;7.82;4.22;;;;;;;;;;10571673;28;20433;-70
2023/07/01 08:08:14;;;;;;;6.88;3.05;;;;;;;;;;10577889;27;20008;-70
2023/07/01 08:13:15;;;;;;;9.70;4.18;;;;;;;;;;10580246;27;20016;-70
2023/07/01 08:18:16;;;;;;;10.10;3.40;;;;;;;;;;10581782;28;20392;-70
2023/07/01 08:23:16;;;;;;;12.85;3.70;;;;;;;;;;10585839;27;20012;-70
2023/07/01 08:28:16;;;;;;;4.78;3.15;;;;;;;;;;10588666;27;20123;-70
2023/07/01 08:33:17;;;;;;;6.78;3.08;;;;;;;;;;10583809;27;20380;-70
2023/07/01 08:38:17;;;;;;;3.28;2.80;;;;;;;;;;10585436;27;20075;-70
2023/07/01 08:43:20;;;;;;;6.57;3.00;;;;;;;;;;10581621;28;20042;-70
2023/07/01 08:48:21;;;;;;;5.85;3.05;;;;;;;;;;10583661;27;20572;-70
2023/07/01 08:53:21;;;;;;;6.32;2.78;;;;;;;;;;10562528;28;20011;-70
2023/07/01 08:58:22;;;;;;;4.53;2.90;;;;;;;;;;10585363;27;20011;-70
2023/07/01 09:03:23;;;;;;;4.00;2.45;;;;;;;;;;10583057;27;20003;-70
2023/07/01 09:08:23;;;;;;;4.32;2.35;;;;;;;;;;10583642;27;20228;-70
2023/07/01 09:13:25;;;;;;;6.35;2.80;;;;;;;;;;10583864;27;20100;-70
2023/07/01 09:18:26;;;;;;;4.03;2.17;;;;;;;;;;10582173;27;20019;-69
2023/07/01 09:23:26;;;;;;;5.25;2.70;;;;;;;;;;10582881;27;20078;-70
2023/07/01 09:28:30;;;;;;;6.23;2.67;;;;;;;;;;10583400;27;20019;-69
2023/07/01 09:33:31;;;;;;;4.75;2.35;;;;;;;;;;10581824;27;20100;-70
2023/07/01 09:38:32;;;;;;;3.53;2.40;;;;;;;;;;10584627;27;20064;-71
2023/07/01 09:43:32;;;;;;;3.35;2.47;;;;;;;;;;10582170;27;20068;-70
2023/07/01 09:48:33;;;;;;;3.50;2.57;;;;;;;;;;10583535;27;20301;-70
2023/07/01 09:53:34;;;;;;;3.55;2.30;;;;;;;;;;10583786;27;20098;-70
2023/07/01 09:58:34;;;;;;;3.20;2.50;;;;;;;;;;10579608;28;20011;-70
2023/07/01 10:03:35;;;;;;;4.47;2.40;;;;;;;;;;10579548;27;20019;-70
2023/07/01 10:08:35;;;;;;;3.50;2.40;;;;;;;;;;10577599;28;20252;-70
2023/07/01 10:13:44;;;;;;;4.63;2.50;;;;;;;;;;10579031;28;20054;-70
2023/07/01 10:18:45;;;;;;;3.80;2.28;;;;;;;;;;10594608;27;20050;-70
2023/07/01 10:23:45;;;;;;;7.35;3.15;;;;;;;;;;10591416;27;20343;-69
2023/07/01 10:28:45;;;;;;;8.63;2.50;;;;;;;;;;10607074;27;20190;-69
2023/07/01 10:33:46;;;;;;;2.38;2.17;;;;;;;;;;10606189;27;20096;-73
2023/07/01 10:38:46;;;;;;;2.97;2.40;;;;;;;;;;10568064;27;20392;-72
2023/07/01 10:43:46;;;;;;;5.45;2.85;;;;;;;;;;10590468;27;20076;-73
2023/07/01 10:49:02;;;;;;;7.13;2.57;;;;;;;;;;10588382;27;20031;-73
2023/07/01 10:54:08;;;;;;;2.83;2.35;;;;;;;;;;10582187;27;20127;-73
2023/07/01 10:59:28;;;;;;;3.97;2.80;;;;;;;;;;10601063;27;20091;-73
2023/07/01 11:04:48;;;;;;;4.90;2.47;;;;;;;;;;10595023;27;20020;-72
2023/07/01 11:09:48;;;;;;;5.88;3.08;;;;;;;;;;10602682;27;20071;-73
2023/07/01 11:14:50;;;;;;;6.25;3.50;;;;;;;;;;10600814;27;20182;-73
2023/07/01 11:19:55;;;;;;;6.53;3.63;;;;;;;;;;10623699;27;20015;-72
2023/07/01 11:25:02;;;;;;;5.93;4.00;;;;;;;;;;10613978;27;20024;-72
2023/07/01 11:30:02;;;;;;;5.40;3.88;;;;;;;;;;10566124;27;20024;-73
2023/07/01 11:35:03;;;;;;;6.53;4.20;;;;;;;;;;10597615;28;20293;-72
2023/07/01 11:40:04;;;;;;;10.07;4.73;;;;;;;;;;10615117;27;20293;-73
2023/07/01 11:45:04;;;;;;;12.95;4.30;;;;;;;;;;10606667;27;20268;-72
2023/07/01 11:50:05;;;;;;;7.07;4.60;;;;;;;;;;10614354;27;20037;-74
2023/07/01 11:55:05;;;;;;;5.97;4.63;;;;;;;;;;10592003;27;20287;-73
2023/07/01 12:00:07;;;;;;;5.07;4.43;;;;;;;;;;10621327;27;20015;-72
2023/07/01 12:05:08;;;;;;;6.03;4.78;;;;;;;;;;10589769;27;20176;-73
2023/07/01 12:10:20;;;;;;;7.38;5.43;;;;;;;;;;10572117;27;20407;-72
2023/07/01 12:15:21;;;;;;;13.45;5.53;;;;;;;;;;10589137;27;20019;-73
2023/07/01 12:20:21;;;;;;;7.65;4.65;;;;;;;;;;10606402;27;20302;-73
2023/07/01 12:25:24;;;;;;;5.55;4.60;;;;;;;;;;10588310;28;20023;-72
2023/07/01 12:30:24;;;;;;;8.50;4.88;;;;;;;;;;10605738;27;20065;-73
2023/07/01 12:35:25;;;;;;;9.45;4.47;;;;;;;;;;10629672;27;20297;-72
2023/07/01 12:40:26;;;;;;;9.40;4.90;;;;;;;;;;10584471;27;20252;-73
2023/07/01 12:45:26;;;;;;;5.22;4.25;;;;;;;;;;10567991;27;20046;-75
2023/07/01 12:50:26;;;;;;;5.47;4.22;;;;;;;;;;10629667;27;20086;-73
2023/07/01 12:55:27;;;;;;;9.88;4.72;;;;;;;;;;10611633;27;20050;-72
2023/07/01 13:00:27;;;;;;;6.37;4.17;;;;;;;;;;10581409;27;20325;-73
2023/07/01 13:05:27;;;;;;;11.50;4.78;;;;;;;;;;10589094;27;20030;-73
2023/07/01 13:10:27;;;;;;;5.40;3.97;;;;;;;;;;10627402;27;20348;-74
2023/07/01 13:15:29;;;;;;;6.53;4.32;;;;;;;;;;10587939;27;20194;-73
2023/07/01 13:20:29;;;;;;;9.25;4.75;;;;;;;;;;10590898;27;20039;-73
2023/07/01 13:25:30;;;;;;;5.90;4.40;;;;;;;;;;10624130;27;20029;-73
2023/07/01 13:30:36;;;;;;;6.63;4.63;;;;;;;;;;10628594;27;20313;-73
2023/07/01 13:35:38;;;;;;;6.03;4.57;;;;;;;;;;10609680;27;20061;-72
2023/07/01 13:40:40;;;;;;;7.40;4.07;;;;;;;;;;10620441;27;20079;-73
2023/07/01 13:45:41;;;;;;;5.88;3.70;;;;;;;;;;10597415;27;20199;-72
2023/07/01 13:50:41;;;;;;;6.78;3.80;;;;;;;;;;10627333;27;20027;-71
2023/07/01 13:55:41;;;;;;;4.93;3.72;;;;;;;;;;10609620;27;20049;-72
2023/07/01 14:00:42;;;;;;;4.60;3.80;;;;;;;;;;10627798;27;20078;-73
2023/07/01 14:05:42;;;;;;;7.10;4.10;;;;;;;;;;10626530;27;20264;-74
2023/07/01 14:10:42;;;;;;;6.47;4.32;;;;;;;;;;10627069;27;20295;-73
2023/07/01 14:15:44;;;;;;;7.60;4.20;;;;;;;;;;10626468;27;20031;-74
2023/07/01 14:20:51;;;;;;;7.55;4.25;;;;;;;;;;10587377;27;20020;-73
2023/07/01 14:25:52;;;;;;;4.55;3.80;;;;;;;;;;10542926;28;20079;-73
2023/07/01 14:30:56;;;;;;;5.25;4.22;;;;;;;;;;10566668;27;20040;-72
2023/07/01 14:35:56;;;;;;;5.07;3.88;;;;;;;;;;10577824;27;20230;-73
2023/07/01 14:40:56;;;;;;;8.27;5.47;;;;;;;;;;10582243;27;20028;-75
2023/07/01 14:45:57;;;;;;;6.75;3.47;;;;;;;;;;10582211;27;20048;-81
2023/07/01 14:50:57;;;;;;;5.67;4.27;;;;;;;;;;10561227;28;20458;-70
2023/07/01 14:55:57;;;;;;;6.03;4.13;;;;;;;;;;10578930;27;20011;-70
2023/07/01 15:00:57;;;;;;;6.90;4.82;;;;;;;;;;10580945;27;20365;-70
2023/07/01 15:05:58;;;;;;;7.10;4.87;;;;;;;;;;10572398;28;20042;-70
2023/07/01 15:10:58;;;;;;;5.68;4.05;;;;;;;;;;10571889;28;20183;-69
2023/07/01 15:15:59;;;;;;;6.15;4.50;;;;;;;;;;10574201;28;20092;-70
2023/07/01 15:21:00;;;;;;;7.78;4.63;;;;;;;;;;10572547;28;20019;-71
2023/07/01 15:26:00;;;;;;;6.40;3.65;;;;;;;;;;10571350;28;20318;-70
2023/07/01 15:31:05;;;;;;;7.85;4.57;;;;;;;;;;10571460;28;20066;-70
2023/07/01 15:36:05;;;;;;;6.70;4.57;;;;;;;;;;10572012;28;20020;-69
2023/07/01 15:41:06;;;;;;;8.02;3.78;;;;;;;;;;10568010;28;20182;-69
2023/07/01 15:46:06;;;;;;;7.43;4.75;;;;;;;;;;10555102;28;20027;-70
2023/07/01 15:51:06;;;;;;;11.57;4.90;;;;;;;;;;10573017;28;20313;-70
2023/07/01 15:56:07;;;;;;;13.40;6.05;;;;;;;;;;10572930;28;20011;-69
2023/07/01 16:01:08;;;;;;;5.47;4.43;;;;;;;;;;10569453;28;20023;-70
2023/07/01 16:06:12;;;;;;;10.48;5.18;;;;;;;;;;10580581;28;20024;-70
2023/07/01 16:11:38;;;;;;;5.80;4.05;;;;;;;;;;10567163;28;20258;-70
2023/07/01 16:16:39;;;;;;;9.38;4.53;;;;;;;;;;10564264;28;20095;-69
2023/07/01 16:21:39;;;;;;;30.17;4.88;;;;;;;;;;10571851;28;20047;-70
2023/07/01 16:26:42;;;;;;;30.08;4.68;;;;;;;;;;10575602;28;20054;-69
2023/07/01 16:31:42;;;;;;;12.10;3.83;;;;;;;;;;10578091;28;20107;-68
2023/07/01 16:36:42;;;;;;;17.20;4.47;;;;;;;;;;10579780;28;20016;-70
2023/07/01 16:41:43;;;;;;;11.10;3.77;;;;;;;;;;10577922;28;20459;-68
2023/07/01 16:46:44;;;;;;;10.77;3.50;;;;;;;;;;10578928;28;20025;-70
2023/07/01 16:51:44;;;;;;;12.05;4.43;;;;;;;;;;10580485;28;20024;-70
2023/07/01 16:56:47;;;;;;;6.47;3.33;;;;;;;;;;10579624;28;20027;-70
2023/07/01 17:01:47;;;;;;;14.88;3.10;;;;;;;;;;10574605;28;20020;-70
2023/07/01 17:06:48;;;;;;;18.30;2.85;;;;;;;;;;10576687;28;20012;-71
2023/07/01 17:11:48;;;;;;;6.33;3.23;;;;;;;;;;10573349;28;20012;-70
2023/07/01 17:16:48;;;;;;;8.27;3.50;;;;;;;;;;10575838;28;20019;-72
2023/07/01 17:21:49;;;;;;;11.13;4.28;;;;;;;;;;10576144;28;20019;-71
2023/07/01 17:26:49;;;;;;;9.27;4.13;;;;;;;;;;10561459;28;20019;-70
2023/07/01 17:31:49;;;;;;;9.43;3.92;;;;;;;;;;10576915;28;20031;-71
2023/07/01 17:36:49;;;;;;;9.65;4.60;;;;;;;;;;10576831;28;20313;-71
2023/07/01 17:41:49;;;;;;;13.73;4.38;;;;;;;;;;10575142;28;20079;-69
2023/07/01 17:46:50;;;;;;;8.20;3.83;;;;;;;;;;10573648;28;20030;-71
2023/07/01 17:51:50;;;;;;;9.23;3.63;;;;;;;;;;10574483;28;20066;-70
2023/07/01 17:56:51;;;;;;;12.30;4.00;;;;;;;;;;10576608;28;20487;-70
2023/07/01 18:01:51;;;;;;;7.93;3.78;;;;;;;;;;10575242;28;20015;-70
2023/07/01 18:06:52;;;;;;;11.43;3.47;;;;;;;;;;10576300;28;20019;-70
2023/07/01 18:11:52;;;;;;;7.17;3.67;;;;;;;;;;10577281;28;20547;-71
2023/07/01 18:16:53;;;;;;;6.70;3.30;;;;;;;;;;10576680;28;20011;-71
2023/07/01 18:21:53;;;;;;;11.40;4.38;;;;;;;;;;10574126;28;20038;-71
2023/07/01 18:26:53;;;;;;;12.50;4.07;;;;;;;;;;10575975;28;20015;-70
2023/07/01 18:31:53;;;;;;;10.98;3.88;;;;;;;;;;10575679;28;20561;-71
2023/07/01 18:36:54;;;;;;;8.05;3.35;;;;;;;;;;10575698;28;20115;-70
2023/07/01 18:41:54;;;;;;;12.27;4.25;;;;;;;;;;10574822;28;20019;-69
2023/07/01 18:46:55;;;;;;;9.55;4.25;;;;;;;;;;10575595;28;20189;-72
2023/07/01 18:51:55;;;;;;;8.93;4.38;;;;;;;;;;10573090;28;20046;-72
2023/07/01 18:56:55;;;;;;;11.40;3.83;;;;;;;;;;10573065;28;20051;-71
2023/07/01 19:01:56;;;;;;;14.10;5.80;;;;;;;;;;10570549;28;20305;-71
2023/07/01 19:06:56;;;;;;;8.15;4.22;;;;;;;;;;10569313;28;20068;-73
2023/07/01 19:11:56;;;;;;;7.63;3.65;;;;;;;;;;10567826;28;20031;-75
2023/07/01 19:16:56;;;;;;;9.73;4.95;;;;;;;;;;10548312;28;20016;-72
2023/07/01 19:21:57;;;;;;;9.27;4.78;;;;;;;;;;10564792;28;20292;-73
2023/07/01 19:26:57;;;;;;;7.75;4.60;;;;;;;;;;10568484;28;20501;-73
2023/07/01 19:31:57;;;;;;;8.33;4.33;;;;;;;;;;10566563;28;20375;-73
2023/07/01 19:36:58;;;;;;;12.20;4.85;;;;;;;;;;10553014;28;20639;-73
2023/07/01 19:41:58;;;;;;;12.63;5.70;;;;;;;;;;10570835;28;20029;-73
2023/07/01 19:46:58;;;;;;;10.73;4.95;;;;;;;;;;10571723;28;20269;-72
2023/07/01 19:51:58;;;;;;;12.05;4.70;;;;;;;;;;10573775;28;20152;-71
2023/07/01 19:56:59;;;;;;;8.27;4.27;;;;;;;;;;10558667;28;20271;-72
2023/07/01 20:01:59;;;;;;;10.98;4.80;;;;;;;;;;10561148;28;20023;-72
2023/07/01 20:06:59;;;;;;;15.30;5.13;;;;;;;;;;10594622;27;20099;-72
2023/07/01 20:11:59;;;;;;;8.40;4.90;;;;;;;;;;10608164;27;20221;-72
2023/07/01 20:17:00;;;;;;;10.63;4.63;;;;;;;;;;10604518;27;20023;-72
2023/07/01 20:22:00;;;;;;;10.27;4.75;;;;;;;;;;10609332;27;20015;-72
2023/07/01 20:27:00;;;;;;;8.10;4.28;;;;;;;;;;10600413;27;20317;-73
2023/07/01 20:32:00;;;;;;;9.40;4.78;;;;;;;;;;10628178;27;20318;-72
2023/07/01 20:37:01;;;;;;;9.63;4.57;;;;;;;;;;10628447;27;20199;-72
2023/07/01 20:42:01;;;;;;;8.80;4.55;;;;;;;;;;10628745;27;20027;-71
2023/07/01 20:47:01;;;;;;;25.90;4.10;;;;;;;;;;10628751;27;20309;-72
2023/07/01 20:52:02;;;;;;;7.07;3.90;;;;;;;;;;10583057;27;20031;-73
2023/07/01 20:57:03;;;;;;;13.98;5.05;;;;;;;;;;10547556;27;20030;-72
2023/07/01 21:02:03;;;;;;;10.35;4.57;;;;;;;;;;10613091;27;20024;-72
2023/07/01 21:07:04;;;;;;;8.20;5.10;;;;;;;;;;10542373;28;20373;-72
2023/07/01 21:12:04;;;;;;;10.82;5.00;;;;;;;;;;10541308;28;20143;-72
2023/07/01 21:17:05;;;;;;;11.95;5.30;;;;;;;;;;10542196;28;20255;-71
2023/07/01 21:22:06;;;;;;;11.65;5.15;;;;;;;;;;10605084;27;20054;-72
2023/07/01 21:27:26;;;;;;;9.67;5.03;;;;;;;;;;10607922;27;20305;-72
2023/07/01 21:32:26;;;;;;;10.32;4.95;;;;;;;;;;10612969;27;20046;-72
2023/07/01 21:37:26;;;;;;;10.63;5.63;;;;;;;;;;10565105;27;20188;-72
2023/07/01 21:42:27;;;;;;;13.20;5.93;;;;;;;;;;10578058;27;20172;-72
2023/07/01 21:47:27;;;;;;;9.82;5.07;;;;;;;;;;10626266;27;20019;-72
2023/07/01 21:52:28;;;;;;;10.85;5.25;;;;;;;;;;10625724;27;20027;-71
2023/07/01 21:57:29;;;;;;;14.10;6.13;;;;;;;;;;10625253;27;20022;-72
2023/07/01 22:02:29;;;;;;;15.27;5.50;;;;;;;;;;10624874;27;20393;-72
2023/07/01 22:07:29;;;;;;;8.65;4.85;;;;;;;;;;10624611;27;20015;-73
2023/07/01 22:12:29;;;;;;;9.05;4.65;;;;;;;;;;10625639;27;20355;-73
2023/07/01 22:17:30;;;;;;;10.00;5.63;;;;;;;;;;10598293;27;20012;-73
2023/07/01 22:22:30;;;;;;;12.27;5.63;;;;;;;;;;10559056;27;20212;-73
2023/07/01 22:27:30;;;;;;;12.63;7.22;;;;;;;;;;10624836;27;20019;-71
2023/07/01 22:32:32;;;;;;;11.52;5.88;;;;;;;;;;10609132;27;20028;-72
2023/07/01 22:37:32;;;;;;;9.20;5.38;;;;;;;;;;10539934;28;20024;-72
2023/07/01 22:42:33;;;;;;;13.63;6.37;;;;;;;;;;10579894;28;20301;-72
2023/07/01 22:47:33;;;;;;;12.50;6.13;;;;;;;;;;10611122;27;20057;-72
2023/07/01 22:52:34;;;;;;;18.48;6.80;;;;;;;;;;10623233;27;20035;-72
2023/07/01 22:57:34;;;;;;;12.27;6.23;;;;;;;;;;10593169;27;20146;-71
2023/07/01 23:02:35;;;;;;;15.25;7.53;;;;;;;;;;10594779;27;20264;-71
2023/07/01 23:07:35;;;;;;;11.73;6.80;;;;;;;;;;10605108;27;20022;-71
2023/07/01 23:12:37;;;;;;;15.40;7.05;;;;;;;;;;10574759;28;20078;-72
2023/07/01 23:17:37;;;;;;;16.17;8.48;;;;;;;;;;10585841;27;20036;-73
2023/07/01 23:22:38;;;;;;;13.40;7.13;;;;;;;;;;10622268;27;20068;-72
2023/07/01 23:27:44;;;;;;;11.50;6.43;;;;;;;;;;10621720;27;20088;-72
2023/07/01 23:32:51;;;;;;;10.50;6.00;;;;;;;;;;10621778;27;20080;-71
2023/07/01 23:37:52;;;;;;;12.00;6.33;;;;;;;;;;10608986;27;20233;-71
2023/07/01 23:42:52;;;;;;;14.57;6.03;;;;;;;;;;10599651;28;20061;-72
2023/07/01 23:47:52;;;;;;;11.50;6.63;;;;;;;;;;10621020;28;20235;-72
2023/07/01 23:52:53;;;;;;;15.95;6.90;;;;;;;;;;10621641;28;20037;-72
2023/07/01 23:57:53;;;;;;;15.47;6.27;;;;;;;;;;10621304;28;20200;-72
